sensor_id;sensor_type;location;lat;lon;timestamp;P1;P4;P2;P0;N10;N4;N25;N1;N05;TS
78703;SPS30;68034;51.966;5.676;2023-10-19T00:01:58;0.1;0.1;0.1;0.1;;;;2.0;148.0;
78703;SPS30;68034;51.966;5.676;2023-10-19T00:04:27;0.7;0.7;0.7;0.6;;;;2.0;155.0;
78703;SPS30;68034;51.966;5.676;2023-10-19T00:07:01;0.9;0.9;0.9;0.9;;;;1.0;149.0;
78703;SPS30;68034;51.966;5.676;2023-10-19T00:09:30;0.2;0.2;0.2;0.2;;;;1.0;148.0;
78703;SPS30;68034;51.966;5.676;2023-10-19T00:12:05;0.2;0.2;0.2;0.2;;;;1.0;150.0;
78703;SPS30;68034;51.966;5.676;2023-10-19T00:14:35;0.9;0.9;0.9;0.8;;;;1.0;151.0;
78703;SPS30;68034;51.966;5.676;2023-10-19T00:17:04;0.7;0.7;0.7;0.7;;;;1.0;151.0;
78703;SPS30;68034;51.966;5.676;2023-10-19T00:19:37;0.5;0.5;0.5;0.5;;;;1.0;152.0;
78703;SPS30;68034;51.966;5.676;2023-10-19T00:22:08;2.6;2.6;2.6;2.4;;;;1.0;154.0;
78703;SPS30;68034;51.966;5.676;2023-10-19T00:24:42;1.4;1.4;1.4;1.3;;;;1.0;153.0;
78703;SPS30;68034;51.966;5.676;2023-10-19T00:27:11;0.1;0.1;0.1;0.1;;;;1.0;152.0;
78703;SPS30;68034;51.966;5.676;2023-10-19T00:29:45;1.0;1.0;1.0;0.9;;;;1.0;155.0;
78703;SPS30;68034;51.966;5.676;2023-10-19T00:32:23;0.1;0.1;0.1;0.1;;;;1.0;145.0;
78703;SPS30;68034;51.966;5.676;2023-10-19T00:34:56;1.0;1.0;1.0;1.0;;;;1.0;150.0;
78703;SPS30;68034;51.966;5.676;2023-10-19T00:37:29;1.1;1.1;1.1;1.0;;;;1.0;158.0;
78703;SPS30;68034;51.966;5.676;2023-10-19T00:39:58;0.2;0.2;0.2;0.2;;;;1.0;159.0;
78703;SPS30;68034;51.966;5.676;2023-10-19T00:42:33;0.7;0.7;0.7;0.7;;;;1.0;166.0;
78703;SPS30;68034;51.966;5.676;2023-10-19T00:45:05;0.7;0.7;0.7;0.7;;;;1.0;165.0;
78703;SPS30;68034;51.966;5.676;2023-10-19T00:47:39;0.4;0.4;0.4;0.4;;;;1.0;166.0;
78703;SPS30;68034;51.966;5.676;2023-10-19T00:50:09;3.9;3.9;3.9;3.7;;;;1.0;169.0;
78703;SPS30;68034;51.966;5.676;2023-10-19T00:52:42;0.3;0.3;0.3;0.3;;;;1.0;166.0;
78703;SPS30;68034;51.966;5.676;2023-10-19T00:55:15;0.4;0.4;0.4;0.4;;;;1.0;172.0;
78703;SPS30;68034;51.966;5.676;2023-10-19T00:57:47;1.8;1.8;1.8;1.8;;;;1.0;174.0;
78703;SPS30;68034;51.966;5.676;2023-10-19T01:00:18;0.3;0.3;0.3;0.3;;;;1.0;163.0;
78703;SPS30;68034;51.966;5.676;2023-10-19T01:02:55;0.8;0.8;0.8;0.8;;;;1.0;164.0;
78703;SPS30;68034;51.966;5.676;2023-10-19T01:05:31;0.3;0.3;0.3;0.3;;;;1.0;166.0;
78703;SPS30;68034;51.966;5.676;2023-10-19T01:08:02;0.8;0.8;0.8;0.7;;;;1.0;173.0;
78703;SPS30;68034;51.966;5.676;2023-10-19T01:10:36;1.7;1.7;1.7;1.6;;;;1.0;175.0;
78703;SPS30;68034;51.966;5.676;2023-10-19T01:13:06;0.4;0.4;0.4;0.4;;;;1.0;179.0;
78703;SPS30;68034;51.966;5.676;2023-10-19T01:15:35;0.5;0.5;0.5;0.5;;;;1.0;177.0;
78703;SPS30;68034;51.966;5.676;2023-10-19T01:18:05;0.4;0.4;0.4;0.4;;;;1.0;179.0;
78703;SPS30;68034;51.966;5.676;2023-10-19T01:20:37;0.2;0.2;0.2;0.2;;;;1.0;180.0;
78703;SPS30;68034;51.966;5.676;2023-10-19T01:23:16;0.4;0.4;0.4;0.4;;;;1.0;180.0;
78703;SPS30;68034;51.966;5.676;2023-10-19T01:25:54;0.7;0.7;0.7;0.6;;;;1.0;182.0;
78703;SPS30;68034;51.966;5.676;2023-10-19T01:28:34;0.3;0.3;0.3;0.3;;;;1.0;187.0;
78703;SPS30;68034;51.966;5.676;2023-10-19T01:31:20;0.8;0.8;0.8;0.7;;;;1.0;195.0;
78703;SPS30;68034;51.966;5.676;2023-10-19T01:34:04;0.3;0.3;0.3;0.3;;;;1.0;197.0;
78703;SPS30;68034;51.966;5.676;2023-10-19T01:36:35;1.4;1.4;1.3;1.3;;;;1.0;195.0;
78703;SPS30;68034;51.966;5.676;2023-10-19T01:39:08;0.7;0.6;0.6;0.6;;;;1.0;194.0;
78703;SPS30;68034;51.966;5.676;2023-10-19T01:41:38;0.0;0.0;0.0;0.0;;;;1.0;195.0;
78703;SPS30;68034;51.966;5.676;2023-10-19T01:44:08;0.7;0.7;0.6;0.6;;;;1.0;202.0;
78703;SPS30;68034;51.966;5.676;2023-10-19T01:46:39;0.4;0.4;0.4;0.4;;;;1.0;204.0;
78703;SPS30;68034;51.966;5.676;2023-10-19T01:49:09;0.1;0.1;0.1;0.1;;;;1.0;203.0;
78703;SPS30;68034;51.966;5.676;2023-10-19T01:51:40;0.0;0.0;0.0;0.0;;;;1.0;211.0;
78703;SPS30;68034;51.966;5.676;2023-10-19T01:54:10;0.2;0.2;0.2;0.2;;;;1.0;213.0;
78703;SPS30;68034;51.966;5.676;2023-10-19T01:56:40;0.0;0.0;0.0;0.0;;;;1.0;215.0;
78703;SPS30;68034;51.966;5.676;2023-10-19T01:59:09;0.1;0.1;0.1;0.1;;;;1.0;220.0;
78703;SPS30;68034;51.966;5.676;2023-10-19T02:01:39;0.0;0.0;0.0;0.0;;;;1.0;220.0;
78703;SPS30;68034;51.966;5.676;2023-10-19T02:04:11;0.1;0.1;0.1;0.1;;;;1.0;220.0;
78703;SPS30;68034;51.966;5.676;2023-10-19T02:06:39;0.0;0.0;0.0;0.0;;;;1.0;221.0;
78703;SPS30;68034;51.966;5.676;2023-10-19T02:09:14;0.0;0.0;0.0;0.0;;;;1.0;221.0;
78703;SPS30;68034;51.966;5.676;2023-10-19T02:11:48;0.0;0.0;0.0;0.0;;;;1.0;222.0;
78703;SPS30;68034;51.966;5.676;2023-10-19T02:14:19;0.0;0.0;0.0;0.0;;;;1.0;223.0;
78703;SPS30;68034;51.966;5.676;2023-10-19T02:16:50;0.0;0.0;0.0;0.0;;;;1.0;225.0;
78703;SPS30;68034;51.966;5.676;2023-10-19T02:19:23;0.0;0.0;0.0;0.0;;;;1.0;225.0;
78703;SPS30;68034;51.966;5.676;2023-10-19T02:21:53;0.0;0.0;0.0;0.0;;;;1.0;228.0;
78703;SPS30;68034;51.966;5.676;2023-10-19T02:24:23;0.3;0.3;0.3;0.3;;;;1.0;229.0;
78703;SPS30;68034;51.966;5.676;2023-10-19T02:26:54;0.4;0.4;0.4;0.4;;;;1.0;229.0;
78703;SPS30;68034;51.966;5.676;2023-10-19T02:29:24;0.0;0.0;0.0;0.0;;;;1.0;221.0;
78703;SPS30;68034;51.966;5.676;2023-10-19T02:31:53;0.1;0.1;0.1;0.1;;;;1.0;221.0;
78703;SPS30;68034;51.966;5.676;2023-10-19T02:34:22;0.0;0.0;0.0;0.0;;;;1.0;222.0;
78703;SPS30;68034;51.966;5.676;2023-10-19T02:36:51;0.0;0.0;0.0;0.0;;;;1.0;225.0;
78703;SPS30;68034;51.966;5.676;2023-10-19T02:39:20;0.3;0.3;0.3;0.3;;;;1.0;225.0;
78703;SPS30;68034;51.966;5.676;2023-10-19T02:41:54;0.0;0.0;0.0;0.0;;;;1.0;225.0;
78703;SPS30;68034;51.966;5.676;2023-10-19T02:44:22;0.0;0.0;0.0;0.0;;;;1.0;225.0;
78703;SPS30;68034;51.966;5.676;2023-10-19T02:46:52;0.0;0.0;0.0;0.0;;;;1.0;227.0;
78703;SPS30;68034;51.966;5.676;2023-10-19T02:49:27;0.0;0.0;0.0;0.0;;;;1.0;225.0;
78703;SPS30;68034;51.966;5.676;2023-10-19T02:51:56;0.0;0.0;0.0;0.0;;;;1.0;223.0;
78703;SPS30;68034;51.966;5.676;2023-10-19T02:54:30;0.0;0.0;0.0;0.0;;;;1.0;223.0;
78703;SPS30;68034;51.966;5.676;2023-10-19T02:56:59;0.0;0.0;0.0;0.0;;;;1.0;223.0;
78703;SPS30;68034;51.966;5.676;2023-10-19T02:59:32;0.2;0.2;0.2;0.2;;;;1.0;224.0;
78703;SPS30;68034;51.966;5.676;2023-10-19T03:02:02;0.0;0.0;0.0;0.0;;;;1.0;225.0;
78703;SPS30;68034;51.966;5.676;2023-10-19T03:04:33;2.0;2.0;2.0;1.9;;;;1.0;224.0;
78703;SPS30;68034;51.966;5.676;2023-10-19T03:07:02;0.0;0.0;0.0;0.0;;;;1.0;225.0;
78703;SPS30;68034;51.966;5.676;2023-10-19T03:09:32;0.0;0.0;0.0;0.0;;;;1.0;226.0;
78703;SPS30;68034;51.966;5.676;2023-10-19T03:12:02;0.0;0.0;0.0;0.0;;;;1.0;229.0;
78703;SPS30;68034;51.966;5.676;2023-10-19T03:14:35;0.0;0.0;0.0;0.0;;;;1.0;229.0;
78703;SPS30;68034;51.966;5.676;2023-10-19T03:17:05;0.0;0.0;0.0;0.0;;;;1.0;229.0;
78703;SPS30;68034;51.966;5.676;2023-10-19T03:19:36;0.0;0.0;0.0;0.0;;;;1.0;230.0;
78703;SPS30;68034;51.966;5.676;2023-10-19T03:22:05;0.0;0.0;0.0;0.0;;;;1.0;231.0;
78703;SPS30;68034;51.966;5.676;2023-10-19T03:24:35;1.7;1.7;1.7;1.6;;;;1.0;233.0;
78703;SPS30;68034;51.966;5.676;2023-10-19T03:27:07;0.0;0.0;0.0;0.0;;;;1.0;234.0;
78703;SPS30;68034;51.966;5.676;2023-10-19T03:29:42;0.0;0.0;0.0;0.0;;;;1.0;233.0;
78703;SPS30;68034;51.966;5.676;2023-10-19T03:32:14;0.0;0.0;0.0;0.0;;;;1.0;231.0;
78703;SPS30;68034;51.966;5.676;2023-10-19T03:34:45;2.0;2.0;2.0;1.9;;;;1.0;229.0;
78703;SPS30;68034;51.966;5.676;2023-10-19T03:37:16;0.0;0.0;0.0;0.0;;;;1.0;230.0;
78703;SPS30;68034;51.966;5.676;2023-10-19T03:39:46;0.0;0.0;0.0;0.0;;;;1.0;230.0;
78703;SPS30;68034;51.966;5.676;2023-10-19T03:42:17;0.0;0.0;0.0;0.0;;;;1.0;231.0;
78703;SPS30;68034;51.966;5.676;2023-10-19T03:44:47;0.0;0.0;0.0;0.0;;;;1.0;233.0;
78703;SPS30;68034;51.966;5.676;2023-10-19T03:47:19;0.0;0.0;0.0;0.0;;;;1.0;234.0;
78703;SPS30;68034;51.966;5.676;2023-10-19T03:49:52;0.0;0.0;0.0;0.0;;;;1.0;236.0;
78703;SPS30;68034;51.966;5.676;2023-10-19T03:52:21;0.0;0.0;0.0;0.0;;;;1.0;238.0;
78703;SPS30;68034;51.966;5.676;2023-10-19T03:54:49;0.0;0.0;0.0;0.0;;;;1.0;238.0;
78703;SPS30;68034;51.966;5.676;2023-10-19T03:57:19;0.2;0.2;0.2;0.2;;;;1.0;238.0;
78703;SPS30;68034;51.966;5.676;2023-10-19T03:59:50;0.0;0.0;0.0;0.0;;;;1.0;237.0;
78703;SPS30;68034;51.966;5.676;2023-10-19T04:02:23;0.0;0.0;0.0;0.0;;;;1.0;235.0;
78703;SPS30;68034;51.966;5.676;2023-10-19T04:04:54;0.0;0.0;0.0;0.0;;;;1.0;233.0;
78703;SPS30;68034;51.966;5.676;2023-10-19T04:07:27;0.0;0.0;0.0;0.0;;;;1.0;233.0;
78703;SPS30;68034;51.966;5.676;2023-10-19T04:09:59;0.0;0.0;0.0;0.0;;;;1.0;233.0;
78703;SPS30;68034;51.966;5.676;2023-10-19T04:12:33;0.0;0.0;0.0;0.0;;;;1.0;232.0;
78703;SPS30;68034;51.966;5.676;2023-10-19T04:15:04;0.0;0.0;0.0;0.0;;;;1.0;232.0;
78703;SPS30;68034;51.966;5.676;2023-10-19T04:17:40;0.0;0.0;0.0;0.0;;;;1.0;230.0;
78703;SPS30;68034;51.966;5.676;2023-10-19T04:20:09;0.0;0.0;0.0;0.0;;;;1.0;231.0;
78703;SPS30;68034;51.966;5.676;2023-10-19T04:22:49;0.0;0.0;0.0;0.0;;;;1.0;233.0;
78703;SPS30;68034;51.966;5.676;2023-10-19T04:25:19;0.0;0.0;0.0;0.0;;;;1.0;235.0;
78703;SPS30;68034;51.966;5.676;2023-10-19T04:27:51;0.0;0.0;0.0;0.0;;;;1.0;234.0;
78703;SPS30;68034;51.966;5.676;2023-10-19T04:30:23;0.0;0.0;0.0;0.0;;;;1.0;234.0;
78703;SPS30;68034;51.966;5.676;2023-10-19T04:32:53;0.0;0.0;0.0;0.0;;;;1.0;236.0;
78703;SPS30;68034;51.966;5.676;2023-10-19T04:35:24;0.0;0.0;0.0;0.0;;;;1.0;236.0;
78703;SPS30;68034;51.966;5.676;2023-10-19T04:37:56;0.0;0.0;0.0;0.0;;;;1.0;237.0;
78703;SPS30;68034;51.966;5.676;2023-10-19T04:40:25;0.0;0.0;0.0;0.0;;;;1.0;238.0;
78703;SPS30;68034;51.966;5.676;2023-10-19T04:42:54;0.0;0.0;0.0;0.0;;;;1.0;239.0;
78703;SPS30;68034;51.966;5.676;2023-10-19T04:45:24;0.0;0.0;0.0;0.0;;;;1.0;240.0;
78703;SPS30;68034;51.966;5.676;2023-10-19T04:47:52;0.0;0.0;0.0;0.0;;;;1.0;240.0;
78703;SPS30;68034;51.966;5.676;2023-10-19T04:50:21;0.0;0.0;0.0;0.0;;;;1.0;241.0;
78703;SPS30;68034;51.966;5.676;2023-10-19T04:52:50;0.0;0.0;0.0;0.0;;;;1.0;240.0;
78703;SPS30;68034;51.966;5.676;2023-10-19T04:55:19;0.0;0.0;0.0;0.0;;;;1.0;240.0;
78703;SPS30;68034;51.966;5.676;2023-10-19T04:57:48;0.0;0.0;0.0;0.0;;;;1.0;239.0;
78703;SPS30;68034;51.966;5.676;2023-10-19T05:00:17;0.3;0.3;0.3;0.3;;;;1.0;239.0;
78703;SPS30;68034;51.966;5.676;2023-10-19T05:02:47;0.0;0.0;0.0;0.0;;;;1.0;239.0;
78703;SPS30;68034;51.966;5.676;2023-10-19T05:05:18;0.0;0.0;0.0;0.0;;;;1.0;237.0;
78703;SPS30;68034;51.966;5.676;2023-10-19T05:07:47;0.0;0.0;0.0;0.0;;;;1.0;235.0;
78703;SPS30;68034;51.966;5.676;2023-10-19T05:10:15;0.0;0.0;0.0;0.0;;;;1.0;233.0;
78703;SPS30;68034;51.966;5.676;2023-10-19T05:12:45;0.0;0.0;0.0;0.0;;;;1.0;232.0;
78703;SPS30;68034;51.966;5.676;2023-10-19T05:15:14;0.2;0.2;0.2;0.2;;;;1.0;231.0;
78703;SPS30;68034;51.966;5.676;2023-10-19T05:17:44;0.0;0.0;0.0;0.0;;;;1.0;230.0;
78703;SPS30;68034;51.966;5.676;2023-10-19T05:20:13;0.0;0.0;0.0;0.0;;;;1.0;229.0;
78703;SPS30;68034;51.966;5.676;2023-10-19T05:22:42;0.0;0.0;0.0;0.0;;;;1.0;227.0;
78703;SPS30;68034;51.966;5.676;2023-10-19T05:25:11;0.0;0.0;0.0;0.0;;;;1.0;226.0;
78703;SPS30;68034;51.966;5.676;2023-10-19T05:27:39;0.0;0.0;0.0;0.0;;;;1.0;225.0;
78703;SPS30;68034;51.966;5.676;2023-10-19T05:30:09;0.0;0.0;0.0;0.0;;;;1.0;225.0;
78703;SPS30;68034;51.966;5.676;2023-10-19T05:32:40;0.0;0.0;0.0;0.0;;;;1.0;225.0;
78703;SPS30;68034;51.966;5.676;2023-10-19T05:35:12;0.0;0.0;0.0;0.0;;;;1.0;225.0;
78703;SPS30;68034;51.966;5.676;2023-10-19T05:37:47;0.0;0.0;0.0;0.0;;;;1.0;225.0;
78703;SPS30;68034;51.966;5.676;2023-10-19T05:40:16;0.0;0.0;0.0;0.0;;;;1.0;225.0;
78703;SPS30;68034;51.966;5.676;2023-10-19T05:42:45;0.0;0.0;0.0;0.0;;;;1.0;225.0;
78703;SPS30;68034;51.966;5.676;2023-10-19T05:45:14;0.7;0.7;0.7;0.7;;;;1.0;224.0;
78703;SPS30;68034;51.966;5.676;2023-10-19T05:47:44;0.0;0.0;0.0;0.0;;;;1.0;225.0;
78703;SPS30;68034;51.966;5.676;2023-10-19T05:50:12;0.0;0.0;0.0;0.0;;;;1.0;224.0;
78703;SPS30;68034;51.966;5.676;2023-10-19T05:52:43;0.0;0.0;0.0;0.0;;;;1.0;227.0;
78703;SPS30;68034;51.966;5.676;2023-10-19T05:55:13;0.0;0.0;0.0;0.0;;;;1.0;228.0;
78703;SPS30;68034;51.966;5.676;2023-10-19T05:57:42;0.0;0.0;0.0;0.0;;;;1.0;228.0;
78703;SPS30;68034;51.966;5.676;2023-10-19T06:00:11;0.0;0.0;0.0;0.0;;;;1.0;229.0;
78703;SPS30;68034;51.966;5.676;2023-10-19T06:02:44;0.0;0.0;0.0;0.0;;;;1.0;235.0;
78703;SPS30;68034;51.966;5.676;2023-10-19T06:05:16;0.1;0.1;0.1;0.1;;;;1.0;239.0;
78703;SPS30;68034;51.966;5.676;2023-10-19T06:07:49;0.0;0.0;0.0;0.0;;;;1.0;243.0;
78703;SPS30;68034;51.966;5.676;2023-10-19T06:10:22;0.0;0.0;0.0;0.0;;;;1.0;243.0;
78703;SPS30;68034;51.966;5.676;2023-10-19T06:12:51;0.0;0.0;0.0;0.0;;;;1.0;244.0;
78703;SPS30;68034;51.966;5.676;2023-10-19T06:15:21;0.0;0.0;0.0;0.0;;;;1.0;243.0;
78703;SPS30;68034;51.966;5.676;2023-10-19T06:17:51;0.0;0.0;0.0;0.0;;;;1.0;243.0;
78703;SPS30;68034;51.966;5.676;2023-10-19T06:20:20;0.0;0.0;0.0;0.0;;;;1.0;252.0;
78703;SPS30;68034;51.966;5.676;2023-10-19T06:22:53;0.0;0.0;0.0;0.0;;;;1.0;267.0;
78703;SPS30;68034;51.966;5.676;2023-10-19T06:25:28;0.0;0.0;0.0;0.0;;;;1.0;262.0;
78703;SPS30;68034;51.966;5.676;2023-10-19T06:28:00;0.0;0.0;0.0;0.0;;;;1.0;259.0;
78703;SPS30;68034;51.966;5.676;2023-10-19T06:30:30;0.0;0.0;0.0;0.0;;;;1.0;253.0;
78703;SPS30;68034;51.966;5.676;2023-10-19T06:32:59;0.0;0.0;0.0;0.0;;;;1.0;247.0;
78703;SPS30;68034;51.966;5.676;2023-10-19T06:35:29;0.0;0.0;0.0;0.0;;;;1.0;239.0;
78703;SPS30;68034;51.966;5.676;2023-10-19T06:38:00;0.0;0.0;0.0;0.0;;;;1.0;235.0;
78703;SPS30;68034;51.966;5.676;2023-10-19T06:40:30;2.5;2.5;2.5;2.4;;;;1.0;233.0;
78703;SPS30;68034;51.966;5.676;2023-10-19T06:42:59;0.0;0.0;0.0;0.0;;;;1.0;233.0;
78703;SPS30;68034;51.966;5.676;2023-10-19T06:45:29;0.1;0.1;0.1;0.1;;;;1.0;232.0;
78703;SPS30;68034;51.966;5.676;2023-10-19T06:47:58;0.0;0.0;0.0;0.0;;;;1.0;230.0;
78703;SPS30;68034;51.966;5.676;2023-10-19T06:50:28;0.0;0.0;0.0;0.0;;;;1.0;230.0;
78703;SPS30;68034;51.966;5.676;2023-10-19T06:52:57;0.0;0.0;0.0;0.0;;;;1.0;230.0;
78703;SPS30;68034;51.966;5.676;2023-10-19T06:55:31;0.0;0.0;0.0;0.0;;;;1.0;229.0;
78703;SPS30;68034;51.966;5.676;2023-10-19T06:57:59;0.0;0.0;0.0;0.0;;;;1.0;229.0;
78703;SPS30;68034;51.966;5.676;2023-10-19T07:00:28;0.0;0.0;0.0;0.0;;;;1.0;228.0;
78703;SPS30;68034;51.966;5.676;2023-10-19T07:03:00;0.0;0.0;0.0;0.0;;;;1.0;226.0;
78703;SPS30;68034;51.966;5.676;2023-10-19T07:05:29;0.0;0.0;0.0;0.0;;;;1.0;224.0;
78703;SPS30;68034;51.966;5.676;2023-10-19T07:07:58;0.0;0.0;0.0;0.0;;;;1.0;223.0;
78703;SPS30;68034;51.966;5.676;2023-10-19T07:10:28;0.0;0.0;0.0;0.0;;;;1.0;222.0;
78703;SPS30;68034;51.966;5.676;2023-10-19T07:12:58;0.0;0.0;0.0;0.0;;;;1.0;221.0;
78703;SPS30;68034;51.966;5.676;2023-10-19T07:15:29;0.0;0.0;0.0;0.0;;;;1.0;221.0;
78703;SPS30;68034;51.966;5.676;2023-10-19T07:17:57;0.0;0.0;0.0;0.0;;;;1.0;221.0;
78703;SPS30;68034;51.966;5.676;2023-10-19T07:20:26;0.0;0.0;0.0;0.0;;;;1.0;221.0;
78703;SPS30;68034;51.966;5.676;2023-10-19T07:22:58;0.1;0.1;0.1;0.0;;;;1.0;220.0;
78703;SPS30;68034;51.966;5.676;2023-10-19T07:25:33;0.0;0.0;0.0;0.0;;;;1.0;219.0;
78703;SPS30;68034;51.966;5.676;2023-10-19T07:28:08;0.0;0.0;0.0;0.0;;;;1.0;219.0;
78703;SPS30;68034;51.966;5.676;2023-10-19T07:30:36;0.0;0.0;0.0;0.0;;;;1.0;220.0;
78703;SPS30;68034;51.966;5.676;2023-10-19T07:33:06;0.0;0.0;0.0;0.0;;;;1.0;220.0;
78703;SPS30;68034;51.966;5.676;2023-10-19T07:35:36;0.1;0.1;0.1;0.0;;;;1.0;220.0;
78703;SPS30;68034;51.966;5.676;2023-10-19T07:38:08;0.0;0.0;0.0;0.0;;;;1.0;220.0;
78703;SPS30;68034;51.966;5.676;2023-10-19T07:40:37;0.0;0.0;0.0;0.0;;;;1.0;219.0;
78703;SPS30;68034;51.966;5.676;2023-10-19T07:43:07;0.0;0.0;0.0;0.0;;;;1.0;219.0;
78703;SPS30;68034;51.966;5.676;2023-10-19T07:45:36;0.0;0.0;0.0;0.0;;;;1.0;218.0;
78703;SPS30;68034;51.966;5.676;2023-10-19T07:48:05;0.0;0.0;0.0;0.0;;;;1.0;216.0;
78703;SPS30;68034;51.966;5.676;2023-10-19T07:50:37;0.0;0.0;0.0;0.0;;;;1.0;216.0;
78703;SPS30;68034;51.966;5.676;2023-10-19T07:53:06;0.0;0.0;0.0;0.0;;;;1.0;216.0;
78703;SPS30;68034;51.966;5.676;2023-10-19T07:55:36;0.0;0.0;0.0;0.0;;;;1.0;216.0;
78703;SPS30;68034;51.966;5.676;2023-10-19T07:58:05;0.0;0.0;0.0;0.0;;;;1.0;216.0;
78703;SPS30;68034;51.966;5.676;2023-10-19T08:00:34;0.0;0.0;0.0;0.0;;;;1.0;216.0;
78703;SPS30;68034;51.966;5.676;2023-10-19T08:03:03;0.0;0.0;0.0;0.0;;;;1.0;216.0;
78703;SPS30;68034;51.966;5.676;2023-10-19T08:05:33;0.0;0.0;0.0;0.0;;;;1.0;216.0;
78703;SPS30;68034;51.966;5.676;2023-10-19T08:08:02;0.0;0.0;0.0;0.0;;;;1.0;217.0;
78703;SPS30;68034;51.966;5.676;2023-10-19T08:10:34;0.0;0.0;0.0;0.0;;;;1.0;217.0;
78703;SPS30;68034;51.966;5.676;2023-10-19T08:13:03;0.0;0.0;0.0;0.0;;;;1.0;220.0;
78703;SPS30;68034;51.966;5.676;2023-10-19T08:15:32;0.2;0.2;0.2;0.1;;;;1.0;221.0;
78703;SPS30;68034;51.966;5.676;2023-10-19T08:18:00;0.0;0.0;0.0;0.0;;;;1.0;222.0;
78703;SPS30;68034;51.966;5.676;2023-10-19T08:20:31;0.0;0.0;0.0;0.0;;;;1.0;222.0;
78703;SPS30;68034;51.966;5.676;2023-10-19T08:23:03;0.0;0.0;0.0;0.0;;;;1.0;222.0;
78703;SPS30;68034;51.966;5.676;2023-10-19T08:25:32;0.0;0.0;0.0;0.0;;;;1.0;223.0;
78703;SPS30;68034;51.966;5.676;2023-10-19T08:28:01;0.0;0.0;0.0;0.0;;;;1.0;223.0;
78703;SPS30;68034;51.966;5.676;2023-10-19T08:30:29;0.0;0.0;0.0;0.0;;;;1.0;223.0;
78703;SPS30;68034;51.966;5.676;2023-10-19T08:33:01;0.0;0.0;0.0;0.0;;;;1.0;222.0;
78703;SPS30;68034;51.966;5.676;2023-10-19T08:35:30;0.3;0.3;0.3;0.3;;;;1.0;223.0;
78703;SPS30;68034;51.966;5.676;2023-10-19T08:37:58;0.0;0.0;0.0;0.0;;;;1.0;223.0;
78703;SPS30;68034;51.966;5.676;2023-10-19T08:40:30;0.0;0.0;0.0;0.0;;;;1.0;224.0;
78703;SPS30;68034;51.966;5.676;2023-10-19T08:42:58;0.0;0.0;0.0;0.0;;;;1.0;224.0;
78703;SPS30;68034;51.966;5.676;2023-10-19T08:45:27;0.0;0.0;0.0;0.0;;;;1.0;226.0;
78703;SPS30;68034;51.966;5.676;2023-10-19T08:47:57;0.0;0.0;0.0;0.0;;;;1.0;238.0;
78703;SPS30;68034;51.966;5.676;2023-10-19T08:50:28;0.0;0.0;0.0;0.0;;;;1.0;236.0;
78703;SPS30;68034;51.966;5.676;2023-10-19T08:52:58;0.0;0.0;0.0;0.0;;;;1.0;235.0;
78703;SPS30;68034;51.966;5.676;2023-10-19T08:55:28;0.0;0.0;0.0;0.0;;;;1.0;236.0;
78703;SPS30;68034;51.966;5.676;2023-10-19T08:57:58;0.1;0.1;0.1;0.1;;;;1.0;236.0;
78703;SPS30;68034;51.966;5.676;2023-10-19T09:00:27;0.0;0.0;0.0;0.0;;;;1.0;235.0;
78703;SPS30;68034;51.966;5.676;2023-10-19T09:03:00;0.3;0.3;0.3;0.3;;;;1.0;236.0;
78703;SPS30;68034;51.966;5.676;2023-10-19T09:05:31;0.0;0.0;0.0;0.0;;;;1.0;235.0;
78703;SPS30;68034;51.966;5.676;2023-10-19T09:08:00;0.2;0.2;0.2;0.2;;;;1.0;235.0;
78703;SPS30;68034;51.966;5.676;2023-10-19T09:10:31;0.0;0.0;0.0;0.0;;;;1.0;234.0;
78703;SPS30;68034;51.966;5.676;2023-10-19T09:13:03;0.0;0.0;0.0;0.0;;;;1.0;233.0;
78703;SPS30;68034;51.966;5.676;2023-10-19T09:15:35;0.0;0.0;0.0;0.0;;;;1.0;233.0;
78703;SPS30;68034;51.966;5.676;2023-10-19T09:18:13;0.0;0.0;0.0;0.0;;;;1.0;233.0;
78703;SPS30;68034;51.966;5.676;2023-10-19T09:20:43;0.0;0.0;0.0;0.0;;;;1.0;233.0;
78703;SPS30;68034;51.966;5.676;2023-10-19T09:23:22;0.0;0.0;0.0;0.0;;;;1.0;233.0;
78703;SPS30;68034;51.966;5.676;2023-10-19T09:25:53;0.0;0.0;0.0;0.0;;;;1.0;234.0;
78703;SPS30;68034;51.966;5.676;2023-10-19T09:28:24;0.0;0.0;0.0;0.0;;;;1.0;234.0;
78703;SPS30;68034;51.966;5.676;2023-10-19T09:30:53;0.0;0.0;0.0;0.0;;;;1.0;235.0;
78703;SPS30;68034;51.966;5.676;2023-10-19T09:33:26;0.0;0.0;0.0;0.0;;;;1.0;240.0;
78703;SPS30;68034;51.966;5.676;2023-10-19T09:35:56;3.0;3.0;3.0;2.9;;;;1.0;241.0;
78703;SPS30;68034;51.966;5.676;2023-10-19T09:38:30;0.0;0.0;0.0;0.0;;;;1.0;246.0;
78703;SPS30;68034;51.966;5.676;2023-10-19T09:40:59;0.0;0.0;0.0;0.0;;;;1.0;251.0;
78703;SPS30;68034;51.966;5.676;2023-10-19T09:43:33;0.0;0.0;0.0;0.0;;;;1.0;254.0;
78703;SPS30;68034;51.966;5.676;2023-10-19T09:46:06;0.0;0.0;0.0;0.0;;;;1.0;254.0;
78703;SPS30;68034;51.966;5.676;2023-10-19T09:48:38;0.0;0.0;0.0;0.0;;;;1.0;255.0;
78703;SPS30;68034;51.966;5.676;2023-10-19T09:51:10;0.0;0.0;0.0;0.0;;;;1.0;256.0;
78703;SPS30;68034;51.966;5.676;2023-10-19T09:53:40;0.0;0.0;0.0;0.0;;;;1.0;256.0;
78703;SPS30;68034;51.966;5.676;2023-10-19T09:56:15;0.0;0.0;0.0;0.0;;;;1.0;258.0;
78703;SPS30;68034;51.966;5.676;2023-10-19T09:58:53;0.0;0.0;0.0;0.0;;;;1.0;262.0;
78703;SPS30;68034;51.966;5.676;2023-10-19T10:01:25;0.0;0.0;0.0;0.0;;;;1.0;267.0;
78703;SPS30;68034;51.966;5.676;2023-10-19T10:03:55;0.0;0.0;0.0;0.0;;;;1.0;271.0;
78703;SPS30;68034;51.966;5.676;2023-10-19T10:06:29;0.3;0.3;0.3;0.3;;;;1.0;272.0;
78703;SPS30;68034;51.966;5.676;2023-10-19T10:09:00;0.0;0.0;0.0;0.0;;;;1.0;272.0;
78703;SPS30;68034;51.966;5.676;2023-10-19T10:11:29;0.0;0.0;0.0;0.0;;;;1.0;272.0;
78703;SPS30;68034;51.966;5.676;2023-10-19T10:13:58;0.0;0.0;0.0;0.0;;;;1.0;275.0;
78703;SPS30;68034;51.966;5.676;2023-10-19T10:16:27;0.0;0.0;0.0;0.0;;;;1.0;277.0;
78703;SPS30;68034;51.966;5.676;2023-10-19T10:18:57;0.4;0.4;0.4;0.4;;;;1.0;277.0;
78703;SPS30;68034;51.966;5.676;2023-10-19T10:21:28;0.4;0.4;0.4;0.3;;;;1.0;279.0;
78703;SPS30;68034;51.966;5.676;2023-10-19T10:23:59;0.0;0.0;0.0;0.0;;;;1.0;278.0;
78703;SPS30;68034;51.966;5.676;2023-10-19T10:26:31;0.2;0.2;0.2;0.2;;;;1.0;277.0;
78703;SPS30;68034;51.966;5.676;2023-10-19T10:29:29;0.0;0.0;0.0;0.0;;;;1.0;279.0;
78703;SPS30;68034;51.966;5.676;2023-10-19T10:31:58;3.3;3.3;3.3;3.2;;;;1.0;276.0;
78703;SPS30;68034;51.966;5.676;2023-10-19T10:34:45;0.0;0.0;0.0;0.0;;;;1.0;273.0;
78703;SPS30;68034;51.966;5.676;2023-10-19T10:37:15;0.0;0.0;0.0;0.0;;;;1.0;272.0;
78703;SPS30;68034;51.966;5.676;2023-10-19T10:39:44;0.0;0.0;0.0;0.0;;;;1.0;271.0;
78703;SPS30;68034;51.966;5.676;2023-10-19T10:42:13;0.0;0.0;0.0;0.0;;;;1.0;269.0;
78703;SPS30;68034;51.966;5.676;2023-10-19T10:44:43;0.1;0.1;0.1;0.1;;;;1.0;265.0;
78703;SPS30;68034;51.966;5.676;2023-10-19T10:47:16;0.0;0.0;0.0;0.0;;;;1.0;239.0;
78703;SPS30;68034;51.966;5.676;2023-10-19T10:49:49;1.4;1.4;1.4;1.4;;;;1.0;247.0;
78703;SPS30;68034;51.966;5.676;2023-10-19T10:52:30;0.0;0.0;0.0;0.0;;;;1.0;251.0;
78703;SPS30;68034;51.966;5.676;2023-10-19T10:55:07;0.0;0.0;0.0;0.0;;;;1.0;253.0;
78703;SPS30;68034;51.966;5.676;2023-10-19T10:57:37;0.1;0.1;0.1;0.1;;;;1.0;256.0;
78703;SPS30;68034;51.966;5.676;2023-10-19T11:00:07;0.0;0.0;0.0;0.0;;;;1.0;256.0;
78703;SPS30;68034;51.966;5.676;2023-10-19T11:02:41;0.0;0.0;0.0;0.0;;;;1.0;255.0;
78703;SPS30;68034;51.966;5.676;2023-10-19T11:05:12;0.0;0.0;0.0;0.0;;;;1.0;252.0;
78703;SPS30;68034;51.966;5.676;2023-10-19T11:10:35;0.0;0.0;0.0;0.0;;;;1.0;251.0;
78703;SPS30;68034;51.966;5.676;2023-10-19T11:13:05;0.0;0.0;0.0;0.0;;;;1.0;254.0;
78703;SPS30;68034;51.966;5.676;2023-10-19T11:15:35;0.0;0.0;0.0;0.0;;;;1.0;254.0;
78703;SPS30;68034;51.966;5.676;2023-10-19T11:18:05;0.0;0.0;0.0;0.0;;;;1.0;260.0;
78703;SPS30;68034;51.966;5.676;2023-10-19T11:20:36;0.0;0.0;0.0;0.0;;;;1.0;267.0;
78703;SPS30;68034;51.966;5.676;2023-10-19T11:23:05;0.0;0.0;0.0;0.0;;;;1.0;270.0;
78703;SPS30;68034;51.966;5.676;2023-10-19T11:25:33;0.0;0.0;0.0;0.0;;;;1.0;273.0;
78703;SPS30;68034;51.966;5.676;2023-10-19T11:28:02;0.1;0.1;0.1;0.1;;;;1.0;277.0;
78703;SPS30;68034;51.966;5.676;2023-10-19T11:30:42;0.0;0.0;0.0;0.0;;;;1.0;275.0;
78703;SPS30;68034;51.966;5.676;2023-10-19T11:33:14;0.0;0.0;0.0;0.0;;;;1.0;272.0;
78703;SPS30;68034;51.966;5.676;2023-10-19T11:35:48;0.3;0.3;0.3;0.3;;;;1.0;268.0;
78703;SPS30;68034;51.966;5.676;2023-10-19T11:38:16;0.0;0.0;0.0;0.0;;;;1.0;268.0;
78703;SPS30;68034;51.966;5.676;2023-10-19T11:40:46;0.1;0.1;0.1;0.1;;;;1.0;270.0;
78703;SPS30;68034;51.966;5.676;2023-10-19T11:43:16;0.0;0.0;0.0;0.0;;;;1.0;267.0;
78703;SPS30;68034;51.966;5.676;2023-10-19T11:45:48;0.0;0.0;0.0;0.0;;;;1.0;264.0;
78703;SPS30;68034;51.966;5.676;2023-10-19T11:48:17;0.0;0.0;0.0;0.0;;;;1.0;263.0;
78703;SPS30;68034;51.966;5.676;2023-10-19T11:50:46;0.0;0.0;0.0;0.0;;;;1.0;263.0;
78703;SPS30;68034;51.966;5.676;2023-10-19T11:53:15;0.0;0.0;0.0;0.0;;;;1.0;263.0;
78703;SPS30;68034;51.966;5.676;2023-10-19T11:55:44;0.1;0.1;0.1;0.1;;;;1.0;262.0;
78703;SPS30;68034;51.966;5.676;2023-10-19T11:58:14;0.0;0.0;0.0;0.0;;;;1.0;262.0;
78703;SPS30;68034;51.966;5.676;2023-10-19T12:00:43;0.0;0.0;0.0;0.0;;;;1.0;263.0;
78703;SPS30;68034;51.966;5.676;2023-10-19T12:03:12;0.0;0.0;0.0;0.0;;;;1.0;260.0;
78703;SPS30;68034;51.966;5.676;2023-10-19T12:05:41;0.0;0.0;0.0;0.0;;;;1.0;259.0;
78703;SPS30;68034;51.966;5.676;2023-10-19T12:08:10;0.5;0.5;0.5;0.5;;;;1.0;259.0;
78703;SPS30;68034;51.966;5.676;2023-10-19T12:10:38;0.0;0.0;0.0;0.0;;;;1.0;262.0;
78703;SPS30;68034;51.966;5.676;2023-10-19T12:13:07;0.0;0.0;0.0;0.0;;;;1.0;260.0;
78703;SPS30;68034;51.966;5.676;2023-10-19T12:15:38;0.0;0.0;0.0;0.0;;;;1.0;259.0;
78703;SPS30;68034;51.966;5.676;2023-10-19T12:18:07;0.0;0.0;0.0;0.0;;;;1.0;258.0;
78703;SPS30;68034;51.966;5.676;2023-10-19T12:20:37;0.0;0.0;0.0;0.0;;;;1.0;257.0;
78703;SPS30;68034;51.966;5.676;2023-10-19T12:23:05;0.0;0.0;0.0;0.0;;;;1.0;256.0;
78703;SPS30;68034;51.966;5.676;2023-10-19T12:25:36;0.0;0.0;0.0;0.0;;;;1.0;251.0;